sensor_id;sensor_type;location;lat;lon;timestamp;P1;durP1;ratioP1;P2;durP2;ratioP2
58553;SDS011;48119;53.218;6.576;2022-10-26T00:02:16;12.75;;;5.93;;
58553;SDS011;48119;53.218;6.576;2022-10-26T00:04:45;9.00;;;5.35;;
58553;SDS011;48119;53.218;6.576;2022-10-26T00:07:30;9.82;;;5.57;;
58553;SDS011;48119;53.218;6.576;2022-10-26T00:09:57;12.82;;;5.97;;
58553;SDS011;48119;53.218;6.576;2022-10-26T00:12:24;8.93;;;5.43;;
58553;SDS011;48119;53.218;6.576;2022-10-26T00:14:52;12.18;;;5.88;;
58553;SDS011;48119;53.218;6.576;2022-10-26T00:17:18;9.95;;;5.05;;
58553;SDS011;48119;53.218;6.576;2022-10-26T00:19:44;12.98;;;6.10;;
58553;SDS011;48119;53.218;6.576;2022-10-26T00:22:19;10.32;;;6.15;;
58553;SDS011;48119;53.218;6.576;2022-10-26T00:24:46;11.43;;;5.97;;
58553;SDS011;48119;53.218;6.576;2022-10-26T00:27:12;12.93;;;5.38;;
58553;SDS011;48119;53.218;6.576;2022-10-26T00:29:38;13.18;;;6.82;;
58553;SDS011;48119;53.218;6.576;2022-10-26T00:32:10;10.93;;;5.60;;
58553;SDS011;48119;53.218;6.576;2022-10-26T00:34:41;8.77;;;5.40;;
58553;SDS011;48119;53.218;6.576;2022-10-26T00:37:17;10.27;;;5.45;;
58553;SDS011;48119;53.218;6.576;2022-10-26T00:39:43;8.85;;;5.97;;
58553;SDS011;48119;53.218;6.576;2022-10-26T00:42:23;8.07;;;5.35;;
58553;SDS011;48119;53.218;6.576;2022-10-26T00:44:58;7.32;;;4.75;;
58553;SDS011;48119;53.218;6.576;2022-10-26T00:47:35;9.18;;;5.55;;
58553;SDS011;48119;53.218;6.576;2022-10-26T00:50:21;10.40;;;5.10;;
58553;SDS011;48119;53.218;6.576;2022-10-26T00:53:00;8.40;;;5.53;;
58553;SDS011;48119;53.218;6.576;2022-10-26T00:55:34;18.63;;;6.03;;
58553;SDS011;48119;53.218;6.576;2022-10-26T00:58:13;11.43;;;6.30;;
58553;SDS011;48119;53.218;6.576;2022-10-26T01:00:41;10.07;;;5.47;;
58553;SDS011;48119;53.218;6.576;2022-10-26T01:03:12;13.40;;;5.85;;
58553;SDS011;48119;53.218;6.576;2022-10-26T01:05:44;13.13;;;6.40;;
58553;SDS011;48119;53.218;6.576;2022-10-26T01:08:19;10.57;;;6.53;;
58553;SDS011;48119;53.218;6.576;2022-10-26T01:10:46;13.05;;;6.90;;
58553;SDS011;48119;53.218;6.576;2022-10-26T01:13:15;9.60;;;6.47;;
58553;SDS011;48119;53.218;6.576;2022-10-26T01:19:09;9.15;;;6.57;;
58553;SDS011;48119;53.218;6.576;2022-10-26T01:28:38;13.43;;;6.90;;
58553;SDS011;48119;53.218;6.576;2022-10-26T01:31:20;9.18;;;6.22;;
58553;SDS011;48119;53.218;6.576;2022-10-26T01:34:00;9.30;;;6.00;;
58553;SDS011;48119;53.218;6.576;2022-10-26T01:36:49;11.50;;;7.40;;
58553;SDS011;48119;53.218;6.576;2022-10-26T01:39:57;17.83;;;8.50;;
58553;SDS011;48119;53.218;6.576;2022-10-26T01:42:35;11.65;;;7.15;;
58553;SDS011;48119;53.218;6.576;2022-10-26T01:45:45;13.48;;;7.85;;
58553;SDS011;48119;53.218;6.576;2022-10-26T01:48:19;12.02;;;7.72;;
58553;SDS011;48119;53.218;6.576;2022-10-26T01:50:52;16.90;;;7.88;;
58553;SDS011;48119;53.218;6.576;2022-10-26T01:53:24;12.27;;;7.35;;
58553;SDS011;48119;53.218;6.576;2022-10-26T01:56:28;11.57;;;7.80;;
58553;SDS011;48119;53.218;6.576;2022-10-26T02:07:17;12.00;;;6.97;;
58553;SDS011;48119;53.218;6.576;2022-10-26T02:18:00;11.60;;;7.35;;
58553;SDS011;48119;53.218;6.576;2022-10-26T02:20:45;10.73;;;7.50;;
58553;SDS011;48119;53.218;6.576;2022-10-26T02:23:23;15.98;;;8.45;;
58553;SDS011;48119;53.218;6.576;2022-10-26T02:25:54;13.48;;;7.88;;
58553;SDS011;48119;53.218;6.576;2022-10-26T02:28:24;13.70;;;8.23;;
58553;SDS011;48119;53.218;6.576;2022-10-26T02:33:37;18.80;;;8.02;;
58553;SDS011;48119;53.218;6.576;2022-10-26T02:36:08;14.77;;;8.52;;
58553;SDS011;48119;53.218;6.576;2022-10-26T02:38:45;15.40;;;8.98;;
58553;SDS011;48119;53.218;6.576;2022-10-26T02:41:39;12.63;;;9.02;;
58553;SDS011;48119;53.218;6.576;2022-10-26T02:44:26;16.40;;;9.10;;
58553;SDS011;48119;53.218;6.576;2022-10-26T02:47:22;11.50;;;7.65;;
58553;SDS011;48119;53.218;6.576;2022-10-26T02:49:58;13.50;;;8.75;;
58553;SDS011;48119;53.218;6.576;2022-10-26T02:55:47;14.02;;;7.97;;
58553;SDS011;48119;53.218;6.576;2022-10-26T02:58:16;14.32;;;7.57;;
58553;SDS011;48119;53.218;6.576;2022-10-26T03:00:52;13.80;;;7.53;;
58553;SDS011;48119;53.218;6.576;2022-10-26T03:03:28;12.93;;;8.77;;
58553;SDS011;48119;53.218;6.576;2022-10-26T03:06:29;11.40;;;7.18;;
58553;SDS011;48119;53.218;6.576;2022-10-26T03:09:01;13.75;;;7.80;;
58553;SDS011;48119;53.218;6.576;2022-10-26T03:11:30;12.10;;;8.10;;
58553;SDS011;48119;53.218;6.576;2022-10-26T03:14:18;21.58;;;8.35;;
58553;SDS011;48119;53.218;6.576;2022-10-26T03:20:04;13.55;;;8.45;;
58553;SDS011;48119;53.218;6.576;2022-10-26T03:22:51;15.82;;;9.35;;
58553;SDS011;48119;53.218;6.576;2022-10-26T03:25:26;14.60;;;9.77;;
58553;SDS011;48119;53.218;6.576;2022-10-26T03:28:15;15.07;;;10.02;;
58553;SDS011;48119;53.218;6.576;2022-10-26T03:30:42;13.82;;;10.00;;
58553;SDS011;48119;53.218;6.576;2022-10-26T03:33:53;19.35;;;10.02;;
58553;SDS011;48119;53.218;6.576;2022-10-26T03:36:43;17.77;;;9.32;;
58553;SDS011;48119;53.218;6.576;2022-10-26T03:39:39;14.63;;;9.05;;
58553;SDS011;48119;53.218;6.576;2022-10-26T03:42:20;15.30;;;9.13;;
58553;SDS011;48119;53.218;6.576;2022-10-26T03:44:53;15.02;;;9.60;;
58553;SDS011;48119;53.218;6.576;2022-10-26T03:47:30;14.88;;;10.20;;
58553;SDS011;48119;53.218;6.576;2022-10-26T03:50:07;13.43;;;10.15;;
58553;SDS011;48119;53.218;6.576;2022-10-26T03:52:45;12.43;;;9.15;;
58553;SDS011;48119;53.218;6.576;2022-10-26T03:55:13;12.50;;;9.05;;
58553;SDS011;48119;53.218;6.576;2022-10-26T03:58:24;15.00;;;10.38;;
58553;SDS011;48119;53.218;6.576;2022-10-26T04:01:10;14.68;;;9.45;;
58553;SDS011;48119;53.218;6.576;2022-10-26T04:03:55;18.00;;;9.57;;
58553;SDS011;48119;53.218;6.576;2022-10-26T04:06:30;14.23;;;9.95;;
58553;SDS011;48119;53.218;6.576;2022-10-26T04:09:11;14.43;;;10.75;;
58553;SDS011;48119;53.218;6.576;2022-10-26T04:11:50;13.77;;;11.05;;
58553;SDS011;48119;53.218;6.576;2022-10-26T04:14:29;12.55;;;9.63;;
58553;SDS011;48119;53.218;6.576;2022-10-26T04:17:10;15.82;;;10.05;;
58553;SDS011;48119;53.218;6.576;2022-10-26T04:19:41;13.75;;;9.90;;
58553;SDS011;48119;53.218;6.576;2022-10-26T04:22:31;15.68;;;10.35;;
58553;SDS011;48119;53.218;6.576;2022-10-26T04:24:57;12.90;;;9.80;;
58553;SDS011;48119;53.218;6.576;2022-10-26T04:27:39;15.57;;;10.18;;
58553;SDS011;48119;53.218;6.576;2022-10-26T04:30:24;16.67;;;10.57;;
58553;SDS011;48119;53.218;6.576;2022-10-26T04:33:31;15.85;;;10.15;;
58553;SDS011;48119;53.218;6.576;2022-10-26T04:36:22;15.25;;;9.70;;
58553;SDS011;48119;53.218;6.576;2022-10-26T04:41:59;19.73;;;10.25;;
58553;SDS011;48119;53.218;6.576;2022-10-26T04:44:36;17.50;;;11.48;;
58553;SDS011;48119;53.218;6.576;2022-10-26T04:47:14;16.20;;;10.88;;
58553;SDS011;48119;53.218;6.576;2022-10-26T04:52:44;15.57;;;10.77;;
58553;SDS011;48119;53.218;6.576;2022-10-26T04:55:36;18.33;;;11.13;;
58553;SDS011;48119;53.218;6.576;2022-10-26T04:58:10;13.85;;;10.07;;
58553;SDS011;48119;53.218;6.576;2022-10-26T05:01:00;17.63;;;12.02;;
58553;SDS011;48119;53.218;6.576;2022-10-26T05:03:27;14.38;;;10.63;;
58553;SDS011;48119;53.218;6.576;2022-10-26T05:06:06;15.82;;;10.40;;
58553;SDS011;48119;53.218;6.576;2022-10-26T05:08:58;16.60;;;10.27;;
58553;SDS011;48119;53.218;6.576;2022-10-26T05:11:32;16.60;;;10.10;;
58553;SDS011;48119;53.218;6.576;2022-10-26T05:14:28;13.65;;;10.00;;
58553;SDS011;48119;53.218;6.576;2022-10-26T05:17:05;13.80;;;10.38;;
58553;SDS011;48119;53.218;6.576;2022-10-26T05:19:50;21.30;;;10.75;;
58553;SDS011;48119;53.218;6.576;2022-10-26T05:22:25;13.65;;;9.73;;
58553;SDS011;48119;53.218;6.576;2022-10-26T05:25:11;14.88;;;8.70;;
58553;SDS011;48119;53.218;6.576;2022-10-26T05:27:39;16.20;;;9.45;;
58553;SDS011;48119;53.218;6.576;2022-10-26T05:30:05;14.50;;;9.85;;
58553;SDS011;48119;53.218;6.576;2022-10-26T05:32:38;15.00;;;10.23;;
58553;SDS011;48119;53.218;6.576;2022-10-26T05:35:09;12.70;;;9.50;;
58553;SDS011;48119;53.218;6.576;2022-10-26T05:37:42;19.67;;;10.13;;
58553;SDS011;48119;53.218;6.576;2022-10-26T05:40:08;16.92;;;10.90;;
58553;SDS011;48119;53.218;6.576;2022-10-26T05:42:43;15.35;;;10.13;;
58553;SDS011;48119;53.218;6.576;2022-10-26T05:45:10;14.00;;;9.98;;
58553;SDS011;48119;53.218;6.576;2022-10-26T05:47:37;16.52;;;10.55;;
58553;SDS011;48119;53.218;6.576;2022-10-26T05:50:22;15.15;;;10.38;;
58553;SDS011;48119;53.218;6.576;2022-10-26T05:53:00;16.15;;;10.50;;
58553;SDS011;48119;53.218;6.576;2022-10-26T05:55:31;16.58;;;10.75;;
58553;SDS011;48119;53.218;6.576;2022-10-26T05:58:00;14.65;;;10.02;;
58553;SDS011;48119;53.218;6.576;2022-10-26T06:00:27;17.13;;;10.93;;
58553;SDS011;48119;53.218;6.576;2022-10-26T06:06:20;15.15;;;9.85;;
58553;SDS011;48119;53.218;6.576;2022-10-26T06:09:15;13.27;;;9.52;;
58553;SDS011;48119;53.218;6.576;2022-10-26T06:12:02;14.30;;;10.52;;
58553;SDS011;48119;53.218;6.576;2022-10-26T06:14:40;20.92;;;9.80;;
58553;SDS011;48119;53.218;6.576;2022-10-26T06:17:28;13.73;;;9.30;;
58553;SDS011;48119;53.218;6.576;2022-10-26T06:33:07;16.33;;;9.85;;
58553;SDS011;48119;53.218;6.576;2022-10-26T06:36:20;18.13;;;9.35;;
58553;SDS011;48119;53.218;6.576;2022-10-26T06:39:24;16.15;;;9.73;;
58553;SDS011;48119;53.218;6.576;2022-10-26T06:42:15;19.50;;;8.68;;
58553;SDS011;48119;53.218;6.576;2022-10-26T06:45:10;21.50;;;11.02;;
58553;SDS011;48119;53.218;6.576;2022-10-26T06:48:09;15.95;;;10.30;;
58553;SDS011;48119;53.218;6.576;2022-10-26T06:55:20;13.65;;;8.98;;
58553;SDS011;48119;53.218;6.576;2022-10-26T06:58:19;14.27;;;8.50;;
58553;SDS011;48119;53.218;6.576;2022-10-26T07:00:50;15.45;;;10.25;;
58553;SDS011;48119;53.218;6.576;2022-10-26T07:06:51;16.27;;;8.70;;
58553;SDS011;48119;53.218;6.576;2022-10-26T07:09:21;12.30;;;8.70;;
58553;SDS011;48119;53.218;6.576;2022-10-26T07:12:16;13.95;;;8.65;;
58553;SDS011;48119;53.218;6.576;2022-10-26T07:15:13;12.68;;;8.82;;
58553;SDS011;48119;53.218;6.576;2022-10-26T07:17:47;12.43;;;7.85;;
58553;SDS011;48119;53.218;6.576;2022-10-26T07:20:22;12.65;;;8.45;;
58553;SDS011;48119;53.218;6.576;2022-10-26T07:23:10;12.75;;;8.15;;
58553;SDS011;48119;53.218;6.576;2022-10-26T07:26:01;15.10;;;8.65;;
58553;SDS011;48119;53.218;6.576;2022-10-26T07:28:43;13.77;;;8.93;;
58553;SDS011;48119;53.218;6.576;2022-10-26T07:31:23;13.20;;;7.45;;
58553;SDS011;48119;53.218;6.576;2022-10-26T07:34:01;15.57;;;8.32;;
58553;SDS011;48119;53.218;6.576;2022-10-26T07:36:58;10.25;;;7.68;;
58553;SDS011;48119;53.218;6.576;2022-10-26T07:39:47;10.70;;;7.72;;
58553;SDS011;48119;53.218;6.576;2022-10-26T07:42:19;14.30;;;8.40;;
58553;SDS011;48119;53.218;6.576;2022-10-26T07:45:06;10.02;;;7.07;;
58553;SDS011;48119;53.218;6.576;2022-10-26T07:48:31;10.75;;;6.45;;
58553;SDS011;48119;53.218;6.576;2022-10-26T07:51:08;10.55;;;6.40;;
58553;SDS011;48119;53.218;6.576;2022-10-26T07:53:57;9.93;;;5.50;;
58553;SDS011;48119;53.218;6.576;2022-10-26T07:56:31;11.23;;;7.03;;
58553;SDS011;48119;53.218;6.576;2022-10-26T07:59:06;11.73;;;6.68;;
58553;SDS011;48119;53.218;6.576;2022-10-26T08:02:17;11.70;;;5.97;;
58553;SDS011;48119;53.218;6.576;2022-10-26T08:08:35;8.65;;;5.93;;
58553;SDS011;48119;53.218;6.576;2022-10-26T08:14:56;10.90;;;6.57;;
58553;SDS011;48119;53.218;6.576;2022-10-26T08:17:44;11.20;;;7.05;;
58553;SDS011;48119;53.218;6.576;2022-10-26T08:20:42;13.20;;;6.60;;
58553;SDS011;48119;53.218;6.576;2022-10-26T08:23:40;9.75;;;6.43;;
58553;SDS011;48119;53.218;6.576;2022-10-26T08:26:08;12.98;;;6.53;;
58553;SDS011;48119;53.218;6.576;2022-10-26T08:28:48;10.30;;;5.30;;
58553;SDS011;48119;53.218;6.576;2022-10-26T08:31:49;9.20;;;6.15;;
58553;SDS011;48119;53.218;6.576;2022-10-26T08:34:33;8.27;;;5.80;;
58553;SDS011;48119;53.218;6.576;2022-10-26T08:37:02;12.02;;;5.82;;
58553;SDS011;48119;53.218;6.576;2022-10-26T08:39:31;7.88;;;5.40;;
58553;SDS011;48119;53.218;6.576;2022-10-26T08:42:44;7.40;;;5.25;;
58553;SDS011;48119;53.218;6.576;2022-10-26T08:45:20;11.98;;;5.22;;
58553;SDS011;48119;53.218;6.576;2022-10-26T08:48:18;8.13;;;5.07;;
58553;SDS011;48119;53.218;6.576;2022-10-26T08:51:18;11.98;;;4.85;;
58553;SDS011;48119;53.218;6.576;2022-10-26T08:54:09;10.82;;;5.57;;
58553;SDS011;48119;53.218;6.576;2022-10-26T09:00:12;9.65;;;5.30;;
58553;SDS011;48119;53.218;6.576;2022-10-26T09:02:52;13.32;;;4.78;;
58553;SDS011;48119;53.218;6.576;2022-10-26T09:26:41;5.03;;;2.97;;
58553;SDS011;48119;53.218;6.576;2022-10-26T09:29:31;9.60;;;3.25;;
58553;SDS011;48119;53.218;6.576;2022-10-26T09:32:39;8.60;;;2.97;;
58553;SDS011;48119;53.218;6.576;2022-10-26T09:41:42;9.50;;;3.00;;
58553;SDS011;48119;53.218;6.576;2022-10-26T09:45:27;10.65;;;5.35;;
58553;SDS011;48119;53.218;6.576;2022-10-26T09:47:59;34.45;;;16.92;;
58553;SDS011;48119;53.218;6.576;2022-10-26T09:50:56;10.80;;;4.53;;
58553;SDS011;48119;53.218;6.576;2022-10-26T09:53:31;5.80;;;2.70;;
58553;SDS011;48119;53.218;6.576;2022-10-26T09:56:03;6.32;;;3.53;;
58553;SDS011;48119;53.218;6.576;2022-10-26T09:58:35;4.57;;;2.92;;
58553;SDS011;48119;53.218;6.576;2022-10-26T10:04:16;6.03;;;3.13;;
58553;SDS011;48119;53.218;6.576;2022-10-26T10:09:43;6.93;;;2.83;;
58553;SDS011;48119;53.218;6.576;2022-10-26T10:12:34;8.07;;;3.05;;
58553;SDS011;48119;53.218;6.576;2022-10-26T10:15:04;9.00;;;2.85;;
58553;SDS011;48119;53.218;6.576;2022-10-26T10:17:53;6.03;;;3.45;;
58553;SDS011;48119;53.218;6.576;2022-10-26T10:20:30;7.60;;;3.22;;
58553;SDS011;48119;53.218;6.576;2022-10-26T10:23:04;6.85;;;3.15;;
58553;SDS011;48119;53.218;6.576;2022-10-26T10:25:39;6.53;;;3.00;;
58553;SDS011;48119;53.218;6.576;2022-10-26T10:28:31;5.28;;;2.55;;
58553;SDS011;48119;53.218;6.576;2022-10-26T10:30:59;6.25;;;2.88;;
58553;SDS011;48119;53.218;6.576;2022-10-26T10:36:24;5.53;;;2.80;;
58553;SDS011;48119;53.218;6.576;2022-10-26T10:38:59;6.43;;;2.53;;
58553;SDS011;48119;53.218;6.576;2022-10-26T10:41:30;5.05;;;2.60;;
58553;SDS011;48119;53.218;6.576;2022-10-26T10:47:02;9.07;;;2.67;;
58553;SDS011;48119;53.218;6.576;2022-10-26T10:49:32;6.75;;;3.85;;
58553;SDS011;48119;53.218;6.576;2022-10-26T10:51:58;5.97;;;2.80;;
58553;SDS011;48119;53.218;6.576;2022-10-26T11:00:47;5.75;;;2.80;;
58553;SDS011;48119;53.218;6.576;2022-10-26T11:06:04;7.97;;;4.13;;
58553;SDS011;48119;53.218;6.576;2022-10-26T11:08:56;7.78;;;2.53;;
58553;SDS011;48119;53.218;6.576;2022-10-26T11:11:32;5.93;;;2.65;;
58553;SDS011;48119;53.218;6.576;2022-10-26T11:14:27;5.25;;;3.08;;
58553;SDS011;48119;53.218;6.576;2022-10-26T11:20:17;5.78;;;3.28;;
58553;SDS011;48119;53.218;6.576;2022-10-26T11:25:26;10.05;;;4.40;;
58553;SDS011;48119;53.218;6.576;2022-10-26T11:27:57;8.27;;;3.70;;
58553;SDS011;48119;53.218;6.576;2022-10-26T11:30:29;11.95;;;5.95;;
58553;SDS011;48119;53.218;6.576;2022-10-26T11:33:12;10.40;;;5.13;;
58553;SDS011;48119;53.218;6.576;2022-10-26T11:36:08;8.20;;;3.67;;
58553;SDS011;48119;53.218;6.576;2022-10-26T11:41:55;5.97;;;2.90;;
58553;SDS011;48119;53.218;6.576;2022-10-26T11:44:59;6.95;;;2.72;;
58553;SDS011;48119;53.218;6.576;2022-10-26T11:47:50;6.25;;;3.50;;
58553;SDS011;48119;53.218;6.576;2022-10-26T11:50:22;8.85;;;3.08;;
58553;SDS011;48119;53.218;6.576;2022-10-26T11:52:55;11.05;;;4.47;;
58553;SDS011;48119;53.218;6.576;2022-10-26T11:55:41;8.23;;;3.60;;
58553;SDS011;48119;53.218;6.576;2022-10-26T11:58:12;7.13;;;2.95;;
58553;SDS011;48119;53.218;6.576;2022-10-26T12:00:44;9.00;;;3.45;;
58553;SDS011;48119;53.218;6.576;2022-10-26T12:03:16;9.07;;;3.85;;
58553;SDS011;48119;53.218;6.576;2022-10-26T12:05:49;9.73;;;4.18;;
58553;SDS011;48119;53.218;6.576;2022-10-26T12:13:56;7.90;;;3.35;;
58553;SDS011;48119;53.218;6.576;2022-10-26T12:16:57;5.85;;;3.13;;
58553;SDS011;48119;53.218;6.576;2022-10-26T12:22:33;6.15;;;3.70;;
58553;SDS011;48119;53.218;6.576;2022-10-26T12:25:21;4.97;;;3.25;;
58553;SDS011;48119;53.218;6.576;2022-10-26T12:30:51;7.65;;;2.97;;
58553;SDS011;48119;53.218;6.576;2022-10-26T12:33:26;6.63;;;2.95;;
58553;SDS011;48119;53.218;6.576;2022-10-26T12:35:53;11.68;;;3.55;;
58553;SDS011;48119;53.218;6.576;2022-10-26T12:44:37;9.35;;;3.45;;
58553;SDS011;48119;53.218;6.576;2022-10-26T12:46:59;7.22;;;3.65;;
58553;SDS011;48119;53.218;6.576;2022-10-26T12:53:12;8.93;;;3.67;;
58553;SDS011;48119;53.218;6.576;2022-10-26T13:00:37;6.32;;;3.00;;
58553;SDS011;48119;53.218;6.576;2022-10-26T13:09:26;6.72;;;3.58;;
58553;SDS011;48119;53.218;6.576;2022-10-26T13:12:07;9.25;;;3.90;;
58553;SDS011;48119;53.218;6.576;2022-10-26T13:14:53;8.77;;;4.40;;
58553;SDS011;48119;53.218;6.576;2022-10-26T13:17:34;6.03;;;3.45;;
58553;SDS011;48119;53.218;6.576;2022-10-26T13:20:03;11.65;;;4.47;;
58553;SDS011;48119;53.218;6.576;2022-10-26T13:22:30;9.32;;;3.78;;
58553;SDS011;48119;53.218;6.576;2022-10-26T13:25:00;8.18;;;3.45;;
58553;SDS011;48119;53.218;6.576;2022-10-26T13:27:39;7.88;;;3.78;;
58553;SDS011;48119;53.218;6.576;2022-10-26T13:30:20;7.90;;;3.58;;
58553;SDS011;48119;53.218;6.576;2022-10-26T13:33:08;7.32;;;3.85;;
58553;SDS011;48119;53.218;6.576;2022-10-26T13:35:45;5.35;;;3.45;;
58553;SDS011;48119;53.218;6.576;2022-10-26T13:38:38;10.95;;;3.72;;
58553;SDS011;48119;53.218;6.576;2022-10-26T13:41:14;8.13;;;3.40;;
58553;SDS011;48119;53.218;6.576;2022-10-26T13:44:05;7.32;;;3.55;;
58553;SDS011;48119;53.218;6.576;2022-10-26T13:46:47;10.88;;;4.40;;
58553;SDS011;48119;53.218;6.576;2022-10-26T13:49:20;10.98;;;4.75;;
58553;SDS011;48119;53.218;6.576;2022-10-26T13:51:52;11.18;;;5.00;;
58553;SDS011;48119;53.218;6.576;2022-10-26T13:57:14;12.07;;;5.63;;
58553;SDS011;48119;53.218;6.576;2022-10-26T13:59:48;8.47;;;4.60;;
58553;SDS011;48119;53.218;6.576;2022-10-26T14:05:11;12.00;;;5.22;;
58553;SDS011;48119;53.218;6.576;2022-10-26T14:07:55;8.35;;;5.65;;
58553;SDS011;48119;53.218;6.576;2022-10-26T14:13:05;11.23;;;5.90;;
58553;SDS011;48119;53.218;6.576;2022-10-26T14:15:36;11.07;;;4.97;;
58553;SDS011;48119;53.218;6.576;2022-10-26T14:18:21;12.17;;;5.50;;
58553;SDS011;48119;53.218;6.576;2022-10-26T14:21:12;9.38;;;5.55;;
58553;SDS011;48119;53.218;6.576;2022-10-26T14:23:53;8.60;;;5.15;;
58553;SDS011;48119;53.218;6.576;2022-10-26T14:26:23;8.25;;;4.40;;
58553;SDS011;48119;53.218;6.576;2022-10-26T14:29:21;8.02;;;4.40;;
58553;SDS011;48119;53.218;6.576;2022-10-26T14:31:55;9.68;;;4.95;;
58553;SDS011;48119;53.218;6.576;2022-10-26T14:34:32;8.15;;;4.78;;
58553;SDS011;48119;53.218;6.576;2022-10-26T14:37:02;10.38;;;5.35;;
58553;SDS011;48119;53.218;6.576;2022-10-26T14:42:29;15.05;;;5.45;;
58553;SDS011;48119;53.218;6.576;2022-10-26T14:48:23;11.07;;;5.60;;
58553;SDS011;48119;53.218;6.576;2022-10-26T14:56:29;12.57;;;5.55;;
58553;SDS011;48119;53.218;6.576;2022-10-26T14:59:11;8.57;;;5.22;;
58553;SDS011;48119;53.218;6.576;2022-10-26T15:02:15;9.25;;;4.68;;
58553;SDS011;48119;53.218;6.576;2022-10-26T15:08:00;9.50;;;5.78;;
58553;SDS011;48119;53.218;6.576;2022-10-26T15:13:30;8.43;;;5.97;;
58553;SDS011;48119;53.218;6.576;2022-10-26T15:18:43;12.63;;;6.55;;
58553;SDS011;48119;53.218;6.576;2022-10-26T15:24:25;12.05;;;7.20;;
58553;SDS011;48119;53.218;6.576;2022-10-26T15:26:55;10.98;;;7.95;;
58553;SDS011;48119;53.218;6.576;2022-10-26T15:29:42;9.27;;;7.63;;
58553;SDS011;48119;53.218;6.576;2022-10-26T15:35:39;11.10;;;7.70;;
58553;SDS011;48119;53.218;6.576;2022-10-26T15:38:09;10.07;;;8.57;;
58553;SDS011;48119;53.218;6.576;2022-10-26T15:40:40;15.60;;;10.20;;
58553;SDS011;48119;53.218;6.576;2022-10-26T15:43:08;12.85;;;8.75;;
58553;SDS011;48119;53.218;6.576;2022-10-26T15:45:44;10.73;;;8.45;;
58553;SDS011;48119;53.218;6.576;2022-10-26T15:48:26;12.43;;;8.15;;
58553;SDS011;48119;53.218;6.576;2022-10-26T15:50:55;11.90;;;9.05;;
58553;SDS011;48119;53.218;6.576;2022-10-26T15:53:21;10.90;;;7.07;;
58553;SDS011;48119;53.218;6.576;2022-10-26T15:55:52;12.35;;;7.82;;
58553;SDS011;48119;53.218;6.576;2022-10-26T15:58:20;10.68;;;8.23;;
58553;SDS011;48119;53.218;6.576;2022-10-26T16:01:05;10.88;;;8.02;;
58553;SDS011;48119;53.218;6.576;2022-10-26T16:03:56;15.73;;;6.68;;
58553;SDS011;48119;53.218;6.576;2022-10-26T16:06:26;9.65;;;7.13;;
58553;SDS011;48119;53.218;6.576;2022-10-26T16:09:14;9.93;;;7.38;;
58553;SDS011;48119;53.218;6.576;2022-10-26T16:12:03;14.00;;;7.47;;
58553;SDS011;48119;53.218;6.576;2022-10-26T16:14:37;13.07;;;7.25;;
58553;SDS011;48119;53.218;6.576;2022-10-26T16:17:11;9.50;;;6.68;;
58553;SDS011;48119;53.218;6.576;2022-10-26T16:19:43;9.50;;;6.30;;
58553;SDS011;48119;53.218;6.576;2022-10-26T16:22:17;10.98;;;6.22;;
58553;SDS011;48119;53.218;6.576;2022-10-26T16:24:54;10.38;;;7.05;;
58553;SDS011;48119;53.218;6.576;2022-10-26T16:27:19;10.43;;;5.95;;
58553;SDS011;48119;53.218;6.576;2022-10-26T16:29:50;10.65;;;6.55;;
58553;SDS011;48119;53.218;6.576;2022-10-26T16:32:18;12.25;;;6.50;;
58553;SDS011;48119;53.218;6.576;2022-10-26T16:34:44;7.70;;;6.13;;
58553;SDS011;48119;53.218;6.576;2022-10-26T16:37:12;6.88;;;5.13;;
58553;SDS011;48119;53.218;6.576;2022-10-26T16:39:39;9.93;;;5.65;;
58553;SDS011;48119;53.218;6.576;2022-10-26T16:42:07;9.63;;;5.50;;
58553;SDS011;48119;53.218;6.576;2022-10-26T16:44:33;10.25;;;5.53;;
58553;SDS011;48119;53.218;6.576;2022-10-26T16:47:08;12.02;;;5.65;;
58553;SDS011;48119;53.218;6.576;2022-10-26T16:49:39;9.68;;;6.43;;
58553;SDS011;48119;53.218;6.576;2022-10-26T16:55:26;8.07;;;6.05;;
58553;SDS011;48119;53.218;6.576;2022-10-26T16:58:29;9.82;;;5.18;;
58553;SDS011;48119;53.218;6.576;2022-10-26T17:00:55;7.78;;;5.65;;
58553;SDS011;48119;53.218;6.576;2022-10-26T17:03:21;11.10;;;5.65;;
58553;SDS011;48119;53.218;6.576;2022-10-26T17:05:53;9.80;;;5.63;;
58553;SDS011;48119;53.218;6.576;2022-10-26T17:08:26;9.23;;;5.22;;
58553;SDS011;48119;53.218;6.576;2022-10-26T17:10:53;10.73;;;6.25;;
58553;SDS011;48119;53.218;6.576;2022-10-26T17:13:44;8.98;;;5.15;;
58553;SDS011;48119;53.218;6.576;2022-10-26T17:16:15;12.18;;;4.75;;
58553;SDS011;48119;53.218;6.576;2022-10-26T17:18:43;11.52;;;4.80;;
58553;SDS011;48119;53.218;6.576;2022-10-26T17:21:44;8.85;;;4.97;;
58553;SDS011;48119;53.218;6.576;2022-10-26T17:24:18;7.00;;;4.47;;
58553;SDS011;48119;53.218;6.576;2022-10-26T17:29:43;7.18;;;4.82;;
58553;SDS011;48119;53.218;6.576;2022-10-26T17:32:12;11.13;;;4.72;;
58553;SDS011;48119;53.218;6.576;2022-10-26T17:34:55;12.32;;;5.63;;
58553;SDS011;48119;53.218;6.576;2022-10-26T17:37:28;5.97;;;3.65;;
58553;SDS011;48119;53.218;6.576;2022-10-26T17:40:36;11.18;;;5.25;;
58553;SDS011;48119;53.218;6.576;2022-10-26T17:43:20;11.23;;;4.88;;
58553;SDS011;48119;53.218;6.576;2022-10-26T17:45:51;10.40;;;5.53;;
58553;SDS011;48119;53.218;6.576;2022-10-26T17:48:23;9.27;;;5.40;;
58553;SDS011;48119;53.218;6.576;2022-10-26T17:51:09;6.47;;;4.75;;
58553;SDS011;48119;53.218;6.576;2022-10-26T17:53:52;10.52;;;6.13;;
58553;SDS011;48119;53.218;6.576;2022-10-26T17:56:24;10.43;;;6.28;;
58553;SDS011;48119;53.218;6.576;2022-10-26T17:58:57;9.10;;;5.22;;
58553;SDS011;48119;53.218;6.576;2022-10-26T18:01:24;16.17;;;5.60;;
58553;SDS011;48119;53.218;6.576;2022-10-26T18:04:03;9.23;;;5.35;;
58553;SDS011;48119;53.218;6.576;2022-10-26T18:09:16;9.25;;;5.75;;
58553;SDS011;48119;53.218;6.576;2022-10-26T18:11:41;11.55;;;6.05;;
58553;SDS011;48119;53.218;6.576;2022-10-26T18:14:07;13.07;;;6.85;;
58553;SDS011;48119;53.218;6.576;2022-10-26T18:16:34;10.60;;;6.50;;
58553;SDS011;48119;53.218;6.576;2022-10-26T18:19:18;9.25;;;7.25;;
58553;SDS011;48119;53.218;6.576;2022-10-26T18:22:19;10.95;;;5.55;;
58553;SDS011;48119;53.218;6.576;2022-10-26T18:24:45;9.27;;;5.45;;
58553;SDS011;48119;53.218;6.576;2022-10-26T18:27:24;10.63;;;5.78;;
58553;SDS011;48119;53.218;6.576;2022-10-26T18:29:59;11.00;;;6.38;;
58553;SDS011;48119;53.218;6.576;2022-10-26T18:32:25;9.30;;;6.70;;
58553;SDS011;48119;53.218;6.576;2022-10-26T18:37:49;10.68;;;5.97;;
58553;SDS011;48119;53.218;6.576;2022-10-26T18:41:10;10.10;;;4.93;;
58553;SDS011;48119;53.218;6.576;2022-10-26T18:43:52;8.52;;;5.03;;
58553;SDS011;48119;53.218;6.576;2022-10-26T18:46:35;10.10;;;5.68;;
58553;SDS011;48119;53.218;6.576;2022-10-26T18:49:15;10.10;;;5.63;;
58553;SDS011;48119;53.218;6.576;2022-10-26T18:54:40;6.50;;;5.40;;
58553;SDS011;48119;53.218;6.576;2022-10-26T18:57:28;12.63;;;5.72;;
58553;SDS011;48119;53.218;6.576;2022-10-26T19:02:31;6.40;;;4.93;;
58553;SDS011;48119;53.218;6.576;2022-10-26T19:04:57;8.43;;;5.40;;
58553;SDS011;48119;53.218;6.576;2022-10-26T19:07:29;9.88;;;5.68;;
58553;SDS011;48119;53.218;6.576;2022-10-26T19:10:02;8.98;;;5.03;;
58553;SDS011;48119;53.218;6.576;2022-10-26T19:12:30;7.85;;;5.45;;
58553;SDS011;48119;53.218;6.576;2022-10-26T19:17:35;9.27;;;4.70;;
58553;SDS011;48119;53.218;6.576;2022-10-26T19:20:22;9.75;;;6.07;;
58553;SDS011;48119;53.218;6.576;2022-10-26T19:23:03;8.50;;;5.38;;
58553;SDS011;48119;53.218;6.576;2022-10-26T19:25:31;10.30;;;5.28;;
58553;SDS011;48119;53.218;6.576;2022-10-26T19:28:13;8.02;;;5.43;;
58553;SDS011;48119;53.218;6.576;2022-10-26T19:30:48;9.77;;;5.35;;